Time;durP1;ratioP1;P1;durP2;ratioP2;P2;SDS_P1;SDS_P2;PMS_P1;PMS_P2;Temp;Humidity;BMP_temperature;BMP_pressure;BME280_temperature;BME280_humidity;BME280_pressure;Samples;Min_cycle;Max_cycle;Signal;HPM_P1;HPM_P2
2024/01/05 00:01:27;;;;;;;16.50;2.27;;;10.80;99.90;;;;;;7280333;19;20189;-82
2024/01/05 00:03:53;;;;;;;9.33;1.40;;;10.70;99.90;;;;;;7282411;19;20188;-82
2024/01/05 00:06:19;;;;;;;10.77;1.90;;;10.70;99.90;;;;;;7301557;19;20218;-82
2024/01/05 00:08:45;;;;;;;11.50;2.03;;;10.70;99.90;;;;;;7280818;19;20178;-82
2024/01/05 00:11:17;;;;;;;15.93;1.93;;;10.70;99.90;;;;;;7277968;19;20214;-82
2024/01/05 00:13:43;;;;;;;7.93;1.80;;;10.70;99.90;;;;;;7279896;19;20247;-82
2024/01/05 00:16:17;;;;;;;18.03;2.33;;;10.70;99.90;;;;;;7280155;19;20944;-82
2024/01/05 00:18:42;;;;;;;12.23;1.50;;;10.80;99.90;;;;;;7279138;19;20630;-83
2024/01/05 00:21:08;;;;;;;10.33;1.80;;;10.80;99.90;;;;;;7278642;19;20211;-83
2024/01/05 00:23:34;;;;;;;13.13;1.80;;;11.00;99.90;;;;;;7278560;19;20663;-82
2024/01/05 00:26:03;;;;;;;13.10;2.13;;;11.10;99.90;;;;;;7278308;19;20201;-83
2024/01/05 00:28:29;;;;;;;14.13;1.77;;;11.20;99.90;;;;;;7278244;19;20235;-82
2024/01/05 00:30:59;;;;;;;11.57;1.70;;;11.30;99.90;;;;;;7277927;19;20194;-82
2024/01/05 00:33:25;;;;;;;9.03;1.80;;;11.30;99.90;;;;;;7276142;19;20191;-82
2024/01/05 00:35:51;;;;;;;10.87;1.67;;;11.40;99.90;;;;;;7300020;19;20183;-82
2024/01/05 00:38:17;;;;;;;15.53;1.93;;;11.40;99.90;;;;;;7278238;19;20189;-83
2024/01/05 00:40:43;;;;;;;12.97;1.73;;;11.40;99.90;;;;;;7278725;19;20192;-82
2024/01/05 00:43:08;;;;;;;10.37;1.50;;;11.30;99.90;;;;;;7278993;19;20193;-82
2024/01/05 00:45:34;;;;;;;7.83;1.57;;;11.40;99.90;;;;;;7278077;19;20195;-83
2024/01/05 00:48:00;;;;;;;12.63;1.87;;;11.30;99.90;;;;;;7279496;19;20195;-82
2024/01/05 00:50:25;;;;;;;11.53;1.70;;;11.30;99.90;;;;;;7276997;19;20191;-82
2024/01/05 00:52:51;;;;;;;13.53;2.03;;;11.30;99.90;;;;;;7298081;19;20184;-82
2024/01/05 00:55:17;;;;;;;7.10;1.50;;;11.30;99.90;;;;;;7278525;19;20188;-83
2024/01/05 00:57:43;;;;;;;7.67;1.47;;;11.20;99.90;;;;;;7277593;19;20589;-82
2024/01/05 01:00:09;;;;;;;10.03;1.57;;;11.20;99.90;;;;;;7275693;19;20207;-83
2024/01/05 01:02:37;;;;;;;9.67;1.60;;;11.20;99.90;;;;;;7277460;19;20191;-82
2024/01/05 01:05:03;;;;;;;9.67;1.67;;;11.30;99.90;;;;;;7278383;19;20207;-82
2024/01/05 01:07:29;;;;;;;9.03;1.50;;;11.30;99.90;;;;;;7282625;19;20267;-82
2024/01/05 01:09:55;;;;;;;8.87;1.90;;;11.40;99.90;;;;;;7284519;19;20233;-82
2024/01/05 01:12:21;;;;;;;11.83;1.70;;;11.40;99.90;;;;;;7306067;19;20556;-83
2024/01/05 01:14:46;;;;;;;10.87;1.43;;;11.30;99.90;;;;;;7285282;19;20183;-82
2024/01/05 01:17:12;;;;;;;9.80;1.40;;;11.30;99.90;;;;;;7285567;19;20188;-82
2024/01/05 01:19:38;;;;;;;7.97;1.40;;;11.30;99.90;;;;;;7283933;19;20192;-82
2024/01/05 01:22:04;;;;;;;10.03;1.57;;;11.30;99.90;;;;;;7283378;19;20662;-82
2024/01/05 01:24:29;;;;;;;9.43;1.50;;;11.30;99.90;;;;;;7282684;19;20183;-82
2024/01/05 01:26:55;;;;;;;7.60;1.60;;;11.30;99.90;;;;;;7283464;19;20559;-81
2024/01/05 01:29:21;;;;;;;12.00;1.60;;;11.20;99.90;;;;;;7306285;19;20460;-82
2024/01/05 01:31:47;;;;;;;9.73;1.57;;;11.30;99.90;;;;;;7284492;19;20284;-82
2024/01/05 01:34:12;;;;;;;13.23;1.83;;;11.20;99.90;;;;;;7282824;19;20192;-82
2024/01/05 01:36:38;;;;;;;10.37;1.57;;;11.20;99.90;;;;;;7284205;19;20574;-82
2024/01/05 01:39:04;;;;;;;8.57;1.40;;;11.20;99.90;;;;;;7283019;19;20210;-82
2024/01/05 01:41:30;;;;;;;10.27;1.70;;;11.20;99.90;;;;;;7288515;19;20208;-82
2024/01/05 01:43:56;;;;;;;7.63;1.30;;;11.30;99.90;;;;;;7285536;19;20299;-83
2024/01/05 01:46:23;;;;;;;7.83;1.60;;;11.30;99.90;;;;;;7305047;19;20191;-82
2024/01/05 01:48:50;;;;;;;8.90;1.50;;;11.30;99.90;;;;;;7285870;19;20196;-83
2024/01/05 01:51:16;;;;;;;12.73;1.80;;;11.30;99.90;;;;;;7284073;19;20196;-82
2024/01/05 01:53:43;;;;;;;9.63;1.67;;;11.30;99.90;;;;;;7283126;19;20190;-83
2024/01/05 01:56:11;;;;;;;9.40;1.77;;;11.30;99.90;;;;;;7283117;19;20193;-83
2024/01/05 01:58:41;;;;;;;5.30;1.20;;;11.40;99.90;;;;;;7282221;19;20189;-83
2024/01/05 02:01:08;;;;;;;11.20;1.60;;;11.30;99.90;;;;;;7282767;19;20191;-82
2024/01/05 02:03:34;;;;;;;7.60;1.30;;;11.30;99.90;;;;;;7282195;19;20223;-82
2024/01/05 02:06:00;;;;;;;7.97;1.50;;;11.30;99.90;;;;;;7281827;19;20773;-82
2024/01/05 02:08:27;;;;;;;5.53;1.60;;;11.30;99.90;;;;;;7282903;19;20205;-82
2024/01/05 02:10:53;;;;;;;7.53;1.60;;;11.30;99.90;;;;;;7300495;19;20188;-81
2024/01/05 02:13:20;;;;;;;10.83;1.30;;;11.30;99.90;;;;;;7301216;19;20646;-83
2024/01/05 02:15:45;;;;;;;8.23;1.73;;;11.30;99.90;;;;;;7283628;19;20189;-83
2024/01/05 02:18:15;;;;;;;9.20;1.60;;;11.30;99.90;;;;;;7282425;19;20290;-83
2024/01/05 02:20:44;;;;;;;10.63;1.60;;;11.30;99.90;;;;;;7283269;19;20268;-83
2024/01/05 02:23:29;;;;;;;8.70;1.50;;;11.30;99.90;;;;;;7280930;19;20195;-82
2024/01/05 02:25:55;;;;;;;8.13;1.13;;;11.30;99.90;;;;;;7261986;19;20244;-81
2024/01/05 02:28:21;;;;;;;7.80;1.10;;;11.20;99.90;;;;;;7303783;19;20166;-81
2024/01/05 02:30:47;;;;;;;8.60;1.40;;;11.30;99.90;;;;;;7281715;19;20195;-82
2024/01/05 02:33:13;;;;;;;10.77;1.40;;;11.30;99.90;;;;;;7281143;19;20198;-82
2024/01/05 02:35:39;;;;;;;5.73;1.47;;;11.30;99.90;;;;;;7281427;19;20209;-82
2024/01/05 02:38:05;;;;;;;8.73;1.57;;;11.30;99.90;;;;;;7280510;19;20200;-82
2024/01/05 02:40:31;;;;;;;9.30;1.40;;;11.40;99.90;;;;;;7281951;19;20200;-81
2024/01/05 02:42:57;;;;;;;8.50;1.50;;;11.30;99.90;;;;;;7281101;19;20207;-82
2024/01/05 02:45:24;;;;;;;8.30;1.30;;;11.30;99.90;;;;;;7300848;19;20217;-81
2024/01/05 02:47:53;;;;;;;8.03;1.50;;;11.40;99.90;;;;;;7283468;19;20678;-82
2024/01/05 02:50:20;;;;;;;8.93;1.23;;;11.40;99.90;;;;;;7282753;19;20711;-84
2024/01/05 02:52:46;;;;;;;9.20;1.60;;;11.40;99.90;;;;;;7281207;19;20663;-82
2024/01/05 02:55:13;;;;;;;9.10;1.50;;;11.30;99.90;;;;;;7281509;19;20678;-82
2024/01/05 02:57:41;;;;;;;9.37;1.43;;;11.30;99.90;;;;;;7282475;19;20220;-82
2024/01/05 03:00:07;;;;;;;8.33;1.33;;;11.30;99.90;;;;;;7280977;19;20199;-82
2024/01/05 03:02:33;;;;;;;8.17;1.17;;;11.30;99.90;;;;;;7279831;19;20663;-82
2024/01/05 03:04:59;;;;;;;10.90;1.53;;;11.30;99.90;;;;;;7281353;19;20196;-82
2024/01/05 03:07:25;;;;;;;10.63;1.40;;;11.30;99.90;;;;;;7287466;19;20608;-82
2024/01/05 03:09:51;;;;;;;6.87;1.40;;;11.40;99.90;;;;;;7306872;19;20183;-82
2024/01/05 03:12:18;;;;;;;8.33;1.57;;;11.40;99.90;;;;;;7280891;19;20193;-82
2024/01/05 03:14:43;;;;;;;11.87;1.70;;;11.50;99.90;;;;;;7280041;19;20198;-83
2024/01/05 03:17:09;;;;;;;11.37;1.33;;;11.60;99.90;;;;;;7278821;19;20204;-82
2024/01/05 03:19:35;;;;;;;7.40;1.30;;;11.60;99.90;;;;;;7278097;19;20185;-82
2024/01/05 03:22:01;;;;;;;11.33;2.17;;;11.40;99.90;;;;;;7279605;19;20185;-82
2024/01/05 03:24:27;;;;;;;8.67;1.20;;;11.40;99.90;;;;;;7279630;19;20656;-82
2024/01/05 03:26:52;;;;;;;9.37;1.30;;;11.30;99.90;;;;;;7299902;19;20209;-83
2024/01/05 03:29:18;;;;;;;9.43;1.27;;;11.30;99.90;;;;;;7278895;19;20196;-82
2024/01/05 03:31:44;;;;;;;6.37;1.20;;;11.30;99.90;;;;;;7280177;19;20186;-81
2024/01/05 03:34:11;;;;;;;7.00;1.17;;;11.20;99.90;;;;;;7279739;19;20278;-82
2024/01/05 03:36:37;;;;;;;6.20;1.20;;;11.20;99.90;;;;;;7279610;19;20188;-82
2024/01/05 03:39:03;;;;;;;6.17;1.13;;;11.20;99.90;;;;;;7279622;19;20198;-82
2024/01/05 03:41:29;;;;;;;6.67;0.97;;;11.10;99.90;;;;;;7279517;19;20181;-82
2024/01/05 03:43:55;;;;;;;6.83;0.90;;;11.10;99.90;;;;;;7280976;19;20252;-82
2024/01/05 03:46:21;;;;;;;6.27;1.00;;;11.00;99.90;;;;;;7299850;19;20180;-83
2024/01/05 03:48:46;;;;;;;5.70;0.93;;;10.90;99.90;;;;;;7278427;19;20514;-82
2024/01/05 03:51:12;;;;;;;3.77;0.63;;;10.90;99.90;;;;;;7277301;19;20682;-82
2024/01/05 03:53:38;;;;;;;4.40;0.73;;;11.00;99.90;;;;;;7278013;19;20192;-82
2024/01/05 03:56:04;;;;;;;4.73;0.63;;;11.00;99.90;;;;;;7281544;19;20183;-83
2024/01/05 03:58:30;;;;;;;2.07;0.50;;;11.00;99.90;;;;;;7278320;19;20186;-82
2024/01/05 04:00:56;;;;;;;3.37;0.60;;;11.00;99.90;;;;;;7276506;19;20183;-81
2024/01/05 04:03:22;;;;;;;2.53;0.50;;;11.00;99.90;;;;;;7301948;19;20183;-82
2024/01/05 04:05:47;;;;;;;2.87;0.50;;;10.90;99.90;;;;;;7277776;19;20194;-82
2024/01/05 04:08:13;;;;;;;4.97;0.50;;;10.90;99.90;;;;;;7279916;19;20323;-83
2024/01/05 04:10:39;;;;;;;2.47;0.43;;;10.90;99.90;;;;;;7279629;19;20189;-82
2024/01/05 04:13:05;;;;;;;2.70;0.50;;;10.90;99.90;;;;;;7278792;19;20211;-82
2024/01/05 04:15:38;;;;;;;2.97;0.50;;;10.90;99.90;;;;;;7278122;19;20551;-82
2024/01/05 04:18:04;;;;;;;1.03;0.30;;;10.70;99.90;;;;;;7278578;19;20208;-82
2024/01/05 04:20:30;;;;;;;3.00;0.40;;;10.70;99.90;;;;;;7277127;19;20714;-81
2024/01/05 04:22:56;;;;;;;0.87;0.33;;;10.60;99.90;;;;;;7279253;19;20259;-82
2024/01/05 04:25:22;;;;;;;3.17;0.40;;;10.60;99.90;;;;;;7301350;19;20198;-82
2024/01/05 04:27:47;;;;;;;1.80;0.40;;;10.60;99.90;;;;;;7280634;19;20660;-82
2024/01/05 04:30:13;;;;;;;1.03;0.30;;;10.50;99.90;;;;;;7281314;19;20204;-83
2024/01/05 04:32:39;;;;;;;1.80;0.30;;;10.40;99.90;;;;;;7279051;19;20186;-83
2024/01/05 04:35:05;;;;;;;1.30;0.30;;;10.10;99.90;;;;;;7279677;19;20201;-83
2024/01/05 04:37:31;;;;;;;2.17;0.40;;;10.10;99.90;;;;;;7278624;19;20179;-84
2024/01/05 04:39:57;;;;;;;1.13;0.30;;;10.10;99.90;;;;;;7278710;19;20569;-82
2024/01/05 04:42:23;;;;;;;2.40;0.40;;;10.00;99.90;;;;;;7306493;19;20212;-82
2024/01/05 04:44:51;;;;;;;1.70;0.33;;;9.80;99.90;;;;;;7285211;19;20183;-82
2024/01/05 04:47:18;;;;;;;1.50;0.83;;;9.80;99.90;;;;;;7283473;19;20199;-82
2024/01/05 04:49:44;;;;;;;1.80;0.40;;;9.80;99.90;;;;;;7284621;19;20199;-82
2024/01/05 04:52:10;;;;;;;2.40;0.33;;;9.70;99.90;;;;;;7282391;19;20196;-82
2024/01/05 04:54:36;;;;;;;2.87;0.50;;;9.60;99.90;;;;;;7286546;19;20187;-83
2024/01/05 04:57:02;;;;;;;1.30;0.33;;;9.60;99.90;;;;;;7284492;19;20198;-83
2024/01/05 04:59:28;;;;;;;2.67;0.40;;;9.70;99.90;;;;;;7283281;19;20188;-82
2024/01/05 05:01:53;;;;;;;2.13;0.40;;;9.60;99.90;;;;;;7306818;19;20186;-81
2024/01/05 05:04:19;;;;;;;1.90;0.30;;;9.60;99.90;;;;;;7293107;19;20207;-83
2024/01/05 05:06:45;;;;;;;1.17;0.33;;;9.60;99.90;;;;;;7283189;19;20179;-82
2024/01/05 05:09:11;;;;;;;2.20;0.40;;;9.50;99.90;;;;;;7284880;19;20648;-82
2024/01/05 05:11:39;;;;;;;2.30;0.50;;;9.40;99.90;;;;;;7284442;19;20193;-83
2024/01/05 05:14:05;;;;;;;0.93;0.40;;;9.50;99.90;;;;;;7284070;19;20190;-82
2024/01/05 05:16:32;;;;;;;1.73;0.50;;;9.40;99.90;;;;;;7284913;19;20190;-83
2024/01/05 05:18:57;;;;;;;4.37;0.83;;;9.40;99.90;;;;;;7283853;19;20182;-82
2024/01/05 05:21:25;;;;;;;0.93;0.30;;;9.30;99.90;;;;;;7305642;19;20195;-82
2024/01/05 05:23:51;;;;;;;2.63;0.40;;;9.30;99.90;;;;;;7284690;19;20190;-82
2024/01/05 05:26:17;;;;;;;3.23;0.80;;;9.20;99.90;;;;;;7283437;19;20194;-82
2024/01/05 05:28:42;;;;;;;1.70;0.40;;;9.20;99.90;;;;;;7283773;19;20201;-82
2024/01/05 05:31:09;;;;;;;2.57;0.50;;;9.20;99.90;;;;;;7283106;19;20201;-83
2024/01/05 05:33:34;;;;;;;1.67;0.47;;;9.20;99.90;;;;;;7281759;19;20194;-81
2024/01/05 05:36:00;;;;;;;2.50;0.47;;;9.20;99.90;;;;;;7283573;19;20673;-81
2024/01/05 05:38:26;;;;;;;1.03;0.30;;;9.20;99.90;;;;;;7281682;19;20662;-82
2024/01/05 05:40:52;;;;;;;4.03;0.70;;;9.20;99.90;;;;;;7305155;19;20177;-82
2024/01/05 05:43:17;;;;;;;2.80;0.50;;;9.10;99.90;;;;;;7282401;19;20236;-82
2024/01/05 05:45:43;;;;;;;2.57;0.60;;;9.10;99.90;;;;;;7282509;19;20203;-82
2024/01/05 05:48:12;;;;;;;3.63;0.60;;;9.10;99.90;;;;;;7283156;19;20193;-82
2024/01/05 05:50:38;;;;;;;2.97;0.60;;;9.00;99.90;;;;;;7288635;19;20201;-81
2024/01/05 05:53:03;;;;;;;1.93;0.60;;;9.00;99.90;;;;;;7285719;19;20195;-83
2024/01/05 05:55:30;;;;;;;2.90;0.53;;;9.00;99.90;;;;;;7288486;19;20185;-82
2024/01/05 05:57:57;;;;;;;3.53;0.63;;;8.90;99.90;;;;;;7288350;19;20193;-82
2024/01/05 06:00:25;;;;;;;1.90;0.50;;;8.90;99.90;;;;;;7309123;19;20615;-83
2024/01/05 06:02:51;;;;;;;3.10;0.53;;;9.00;99.90;;;;;;7287869;19;20197;-83
2024/01/05 06:05:16;;;;;;;3.17;0.70;;;9.00;99.90;;;;;;7288020;19;20218;-82
2024/01/05 06:07:42;;;;;;;3.50;0.70;;;9.00;99.90;;;;;;7286532;19;20196;-82
2024/01/05 06:10:08;;;;;;;1.97;0.50;;;8.90;99.90;;;;;;7283817;19;20198;-82
2024/01/05 06:12:34;;;;;;;2.83;0.40;;;9.00;99.90;;;;;;7282194;19;20192;-82
2024/01/05 06:15:00;;;;;;;2.73;0.40;;;8.90;99.90;;;;;;7281801;19;20344;-82
2024/01/05 06:17:26;;;;;;;1.67;0.50;;;8.90;99.90;;;;;;7283988;19;20194;-82
2024/01/05 06:19:51;;;;;;;3.17;0.60;;;8.90;99.90;;;;;;7303823;19;20192;-82
2024/01/05 06:22:17;;;;;;;3.77;0.70;;;8.80;99.90;;;;;;7281561;19;20305;-82
2024/01/05 06:24:46;;;;;;;2.93;0.60;;;8.80;99.90;;;;;;7283337;19;20228;-82
2024/01/05 06:27:12;;;;;;;1.40;0.47;;;8.70;99.90;;;;;;7281793;19;20198;-83
2024/01/05 06:29:38;;;;;;;4.00;0.60;;;8.70;99.90;;;;;;7283066;19;20193;-83
2024/01/05 06:32:04;;;;;;;2.90;0.57;;;8.80;99.90;;;;;;7281453;19;20194;-86
2024/01/05 06:34:30;;;;;;;2.10;0.50;;;8.70;99.90;;;;;;7283360;19;20575;-85
2024/01/05 06:36:56;;;;;;;2.00;0.43;;;8.80;99.90;;;;;;7283719;19;20190;-85
2024/01/05 06:39:22;;;;;;;5.30;0.60;;;8.70;99.90;;;;;;7305499;19;20199;-85
2024/01/05 06:41:48;;;;;;;1.57;0.40;;;8.70;99.90;;;;;;7283829;19;20185;-85
2024/01/05 06:44:13;;;;;;;4.37;0.53;;;8.70;99.90;;;;;;7285274;19;20266;-86
2024/01/05 06:46:39;;;;;;;2.53;0.60;;;8.80;99.90;;;;;;7281519;19;20211;-85
2024/01/05 06:49:05;;;;;;;4.23;0.90;;;8.80;99.90;;;;;;7284118;19;20693;-85
2024/01/05 06:51:40;;;;;;;5.77;0.60;;;8.60;99.90;;;;;;7283077;19;20201;-86
2024/01/05 06:54:06;;;;;;;4.00;0.70;;;8.50;99.90;;;;;;7284693;19;20199;-86
2024/01/05 06:56:32;;;;;;;5.10;0.70;;;8.40;99.90;;;;;;7283414;19;20631;-88
2024/01/05 06:59:02;;;;;;;4.10;0.43;;;8.30;99.90;;;;;;7282525;19;20192;-87
2024/01/05 07:01:28;;;;;;;5.13;0.50;;;8.30;99.90;;;;;;7282118;19;20194;-84
2024/01/05 07:03:54;;;;;;;4.30;0.97;;;8.20;99.90;;;;;;7296640;19;20958;-85
2024/01/05 07:06:20;;;;;;;4.60;0.70;;;8.10;99.90;;;;;;7296592;19;20209;-86
2024/01/05 07:08:46;;;;;;;5.33;0.93;;;8.10;99.90;;;;;;7282270;19;20197;-86
2024/01/05 07:11:22;;;;;;;4.03;0.77;;;8.10;99.90;;;;;;7283172;19;20194;-85
2024/01/05 07:13:48;;;;;;;5.20;1.13;;;8.10;99.90;;;;;;7280034;19;20651;-84
2024/01/05 07:16:18;;;;;;;5.70;1.00;;;8.10;99.90;;;;;;7281434;19;20204;-84
2024/01/05 07:18:46;;;;;;;3.33;0.80;;;8.00;99.90;;;;;;7283376;19;20327;-86
2024/01/05 07:21:13;;;;;;;3.37;0.70;;;8.00;99.90;;;;;;7281915;19;20193;-85
2024/01/05 07:23:39;;;;;;;4.40;0.90;;;7.90;99.90;;;;;;7283650;19;20192;-85
2024/01/05 07:26:05;;;;;;;3.13;0.80;;;7.70;99.90;;;;;;7281482;19;20197;-85
2024/01/05 07:28:30;;;;;;;4.20;0.60;;;7.60;99.90;;;;;;7281505;19;20229;-85
2024/01/05 07:30:56;;;;;;;4.20;0.60;;;7.60;99.90;;;;;;7282413;19;20656;-86
2024/01/05 07:33:22;;;;;;;4.03;0.60;;;7.60;99.90;;;;;;7302866;19;20192;-83
2024/01/05 07:35:48;;;;;;;3.33;0.60;;;7.60;99.90;;;;;;7284241;19;20563;-85
2024/01/05 07:38:14;;;;;;;4.33;0.70;;;7.60;99.90;;;;;;7281423;19;20189;-85
2024/01/05 07:40:40;;;;;;;2.90;0.70;;;7.60;99.90;;;;;;7282391;19;20218;-86
2024/01/05 07:43:05;;;;;;;2.60;0.50;;;7.60;99.90;;;;;;7284528;19;20541;-86
2024/01/05 07:45:31;;;;;;;3.13;0.60;;;7.60;99.90;;;;;;7294396;19;20217;-85
2024/01/05 07:47:58;;;;;;;3.80;0.80;;;7.70;99.90;;;;;;7294612;19;20189;-84
2024/01/05 07:50:24;;;;;;;5.90;0.57;;;7.60;99.90;;;;;;7319829;19;20192;-85
2024/01/05 07:52:51;;;;;;;6.53;0.80;;;7.70;99.90;;;;;;7304387;19;20197;-85
2024/01/05 07:55:16;;;;;;;3.37;0.90;;;7.70;99.90;;;;;;7309169;19;20204;-84
2024/01/05 07:57:43;;;;;;;6.33;0.90;;;7.80;99.90;;;;;;7297480;19;20189;-86
2024/01/05 08:00:10;;;;;;;8.33;1.10;;;7.80;99.90;;;;;;7280758;19;20197;-86
2024/01/05 08:02:36;;;;;;;6.70;1.20;;;7.90;99.90;;;;;;7280802;19;20185;-85
2024/01/05 08:05:02;;;;;;;7.57;1.30;;;7.80;99.90;;;;;;7280455;19;20475;-85
2024/01/05 08:07:28;;;;;;;5.60;1.33;;;7.90;99.90;;;;;;7280591;19;20541;-85
2024/01/05 08:09:54;;;;;;;8.67;1.50;;;7.90;99.90;;;;;;7303060;19;20200;-86
2024/01/05 08:12:20;;;;;;;5.03;1.40;;;7.90;99.90;;;;;;7280158;19;20196;-86
2024/01/05 08:14:46;;;;;;;11.27;1.57;;;8.10;99.90;;;;;;7279619;19;20623;-86
2024/01/05 08:17:12;;;;;;;8.47;1.60;;;8.10;99.90;;;;;;7281141;19;20656;-86
2024/01/05 08:19:38;;;;;;;7.60;1.77;;;8.00;99.90;;;;;;7279753;19;20199;-86
2024/01/05 08:22:03;;;;;;;7.47;1.67;;;7.80;99.90;;;;;;7279825;19;20276;-85
2024/01/05 08:24:29;;;;;;;8.53;1.60;;;8.00;99.90;;;;;;7280601;19;20192;-85
2024/01/05 08:26:55;;;;;;;7.57;1.60;;;8.00;99.90;;;;;;7288346;19;20192;-85
2024/01/05 08:29:22;;;;;;;6.87;1.70;;;8.00;99.90;;;;;;7302127;19;20212;-86
2024/01/05 08:31:51;;;;;;;6.30;1.40;;;8.10;99.90;;;;;;7279822;19;20193;-86
2024/01/05 08:34:17;;;;;;;8.90;1.47;;;8.10;99.90;;;;;;7278495;19;20201;-86
2024/01/05 08:36:44;;;;;;;8.33;1.73;;;8.30;99.90;;;;;;7279285;19;20264;-84
2024/01/05 08:39:10;;;;;;;7.03;1.70;;;8.30;99.90;;;;;;7278443;19;20193;-84
2024/01/05 08:41:36;;;;;;;10.20;1.53;;;8.30;99.90;;;;;;7279070;19;20204;-84
2024/01/05 08:44:02;;;;;;;5.60;1.60;;;8.30;99.90;;;;;;7279380;19;20189;-84
2024/01/05 08:46:28;;;;;;;9.73;1.90;;;8.20;99.90;;;;;;7279156;19;20655;-84
2024/01/05 08:48:54;;;;;;;6.73;1.80;;;8.20;99.90;;;;;;7302067;19;20628;-85
2024/01/05 08:51:20;;;;;;;10.60;1.83;;;8.30;99.90;;;;;;7279437;19;20193;-85
2024/01/05 08:53:45;;;;;;;9.40;1.93;;;8.20;99.90;;;;;;7278612;19;20185;-83
2024/01/05 08:56:11;;;;;;;12.27;1.90;;;8.20;99.90;;;;;;7278100;19;20196;-83
2024/01/05 08:58:37;;;;;;;12.07;2.27;;;8.20;99.90;;;;;;7279269;19;20234;-85
2024/01/05 09:01:03;;;;;;;11.27;2.00;;;8.30;99.90;;;;;;7280263;19;20188;-84
2024/01/05 09:03:28;;;;;;;8.63;1.70;;;8.40;99.90;;;;;;7284524;19;20526;-86
2024/01/05 09:05:54;;;;;;;11.47;2.70;;;8.40;99.90;;;;;;7301087;19;20214;-85
2024/01/05 09:08:20;;;;;;;12.93;2.10;;;8.30;99.90;;;;;;7279389;19;20189;-85
2024/01/05 09:10:46;;;;;;;13.20;2.10;;;8.30;99.90;;;;;;7276968;19;20254;-84
2024/01/05 09:13:11;;;;;;;15.90;2.27;;;8.20;99.90;;;;;;7278087;19;20555;-85
2024/01/05 09:15:37;;;;;;;9.93;2.07;;;8.30;99.90;;;;;;7278950;19;20249;-86
2024/01/05 09:18:05;;;;;;;9.43;2.23;;;8.30;99.90;;;;;;7280093;19;20185;-90
2024/01/05 09:20:30;;;;;;;8.70;2.00;;;8.30;99.90;;;;;;7279283;19;20189;-91
2024/01/05 09:22:56;;;;;;;11.63;2.13;;;8.30;99.90;;;;;;7281302;19;20646;-91
2024/01/05 09:25:22;;;;;;;11.07;2.13;;;8.20;99.90;;;;;;7301530;19;20252;-91
2024/01/05 09:27:48;;;;;;;10.57;2.17;;;8.20;99.90;;;;;;7279080;19;20188;-91
2024/01/05 09:30:14;;;;;;;12.67;2.47;;;8.20;99.90;;;;;;7287000;19;20193;-91
2024/01/05 09:32:40;;;;;;;10.53;2.00;;;8.30;99.90;;;;;;7286200;19;20196;-92
2024/01/05 09:35:11;;;;;;;14.97;2.60;;;8.30;99.90;;;;;;7285960;19;20196;-92
2024/01/05 09:37:37;;;;;;;11.60;2.30;;;8.20;99.90;;;;;;7285304;19;20268;-91
2024/01/05 09:40:03;;;;;;;10.47;2.70;;;8.20;99.90;;;;;;7285027;19;20253;-91
2024/01/05 09:42:29;;;;;;;11.17;2.33;;;8.20;99.90;;;;;;7287317;19;20188;-91
2024/01/05 09:44:55;;;;;;;15.80;2.23;;;8.30;99.90;;;;;;7306851;19;20194;-86
2024/01/05 09:47:21;;;;;;;15.13;2.37;;;8.40;99.90;;;;;;7301273;19;20192;-91
2024/01/05 09:49:49;;;;;;;14.83;2.00;;;8.40;99.90;;;;;;7286543;19;20195;-93
2024/01/05 09:52:18;;;;;;;11.60;2.13;;;8.50;99.90;;;;;;7285207;19;20207;-92
2024/01/05 09:54:46;;;;;;;14.10;2.10;;;8.50;99.90;;;;;;7285739;19;20215;-91
2024/01/05 09:57:16;;;;;;;10.70;2.30;;;8.50;99.90;;;;;;7278184;19;20188;-91
2024/01/05 09:59:46;;;;;;;12.00;2.47;;;8.50;99.90;;;;;;7286774;19;20189;-92
2024/01/05 10:02:17;;;;;;;13.60;1.93;;;8.50;99.90;;;;;;7290331;19;20188;-91
2024/01/05 10:04:43;;;;;;;14.60;2.63;;;8.50;99.90;;;;;;7285824;19;20214;-91
2024/01/05 10:07:08;;;;;;;13.80;3.63;;;8.40;99.90;;;;;;7285124;19;20529;-92
2024/01/05 10:09:50;;;;;;;14.13;4.27;;;8.40;99.90;;;;;;7283710;19;20208;-91
2024/01/05 10:12:17;;;;;;;10.87;2.80;;;8.50;99.90;;;;;;7283807;19;20186;-92
2024/01/05 10:14:44;;;;;;;12.30;2.43;;;8.50;99.90;;;;;;7285198;19;20189;-92
2024/01/05 10:17:11;;;;;;;11.93;2.10;;;8.50;99.90;;;;;;7290762;19;20206;-92
2024/01/05 10:19:37;;;;;;;12.00;3.53;;;8.50;99.90;;;;;;7285608;19;20193;-92
2024/01/05 10:22:13;;;;;;;13.07;3.77;;;8.50;99.90;;;;;;7288332;19;20241;-92
2024/01/05 10:24:41;;;;;;;11.07;3.10;;;8.50;99.90;;;;;;7287335;19;20184;-91
2024/01/05 10:27:12;;;;;;;13.07;2.60;;;8.50;99.90;;;;;;7290662;19;20195;-92
2024/01/05 10:29:43;;;;;;;11.50;3.23;;;8.60;99.90;;;;;;7304372;19;20197;-91
2024/01/05 10:32:10;;;;;;;13.13;2.40;;;8.50;99.90;;;;;;7293112;19;20227;-94
2024/01/05 10:34:36;;;;;;;13.27;3.60;;;8.60;99.90;;;;;;7286998;19;20233;-94
2024/01/05 10:37:05;;;;;;;12.13;3.03;;;8.60;99.90;;;;;;7286977;19;20188;-94
2024/01/05 10:39:32;;;;;;;14.63;2.80;;;8.70;99.90;;;;;;7288669;19;20232;-93
2024/01/05 10:42:28;;;;;;;7.33;1.80;;;8.60;99.90;;;;;;7296827;19;20193;-93
2024/01/05 10:45:01;;;;;;;9.10;1.70;;;8.60;99.90;;;;;;7300163;19;20203;-93
2024/01/05 10:47:30;;;;;;;12.00;2.10;;;8.70;99.90;;;;;;7280178;19;20197;-93
2024/01/05 10:49:59;;;;;;;14.57;2.10;;;8.60;99.90;;;;;;7305079;19;20196;-93
2024/01/05 10:52:32;;;;;;;10.27;2.03;;;8.60;99.90;;;;;;7313900;19;20181;-94
2024/01/05 10:55:02;;;;;;;12.13;2.20;;;8.60;99.90;;;;;;7187347;19;2004539;-93
2024/01/05 10:57:30;;;;;;;11.33;2.27;;;8.50;99.90;;;;;;7289616;19;20637;-93
2024/01/05 10:59:56;;;;;;;18.47;2.60;;;8.50;99.90;;;;;;7293633;19;20189;-92
2024/01/05 11:02:42;;;;;;;12.47;2.27;;;8.50;99.90;;;;;;7329186;19;20191;-92
2024/01/05 11:05:12;;;;;;;12.63;2.50;;;8.50;99.90;;;;;;7192529;19;2004611;-94
2024/01/05 11:07:41;;;;;;;14.27;2.37;;;8.60;99.90;;;;;;7292045;19;20181;-93
2024/01/05 11:10:38;;;;;;;7.30;1.93;;;8.70;99.90;;;;;;7299749;19;20229;-93
2024/01/05 11:13:07;;;;;;;12.57;2.13;;;8.70;99.90;;;;;;7192945;19;2004407;-93
2024/01/05 11:16:13;;;;;;;12.73;1.93;;;8.80;99.90;;;;;;7295345;19;20222;-94
2024/01/05 11:19:29;;;;;;;7.20;1.77;;;8.80;99.90;;;;;;7189058;19;2004458;-94
2024/01/05 11:22:21;;;;;;;10.63;1.90;;;8.90;99.90;;;;;;7192283;19;2004324;-87
2024/01/05 11:25:03;;;;;;;9.73;2.10;;;8.90;99.90;;;;;;7199237;19;2004669;-86
2024/01/05 11:27:38;;;;;;;9.17;2.10;;;9.00;99.90;;;;;;7192382;19;2004711;-86
2024/01/05 11:30:08;;;;;;;10.10;2.10;;;9.10;99.90;;;;;;7295531;19;20200;-86
2024/01/05 11:32:46;;;;;;;10.07;2.27;;;9.10;99.90;;;;;;7293308;19;20201;-86
2024/01/05 11:35:19;;;;;;;7.00;1.90;;;9.20;99.90;;;;;;7294045;19;20223;-87
2024/01/05 11:37:52;;;;;;;8.93;1.80;;;9.30;99.90;;;;;;7301164;19;20209;-87
2024/01/05 11:40:34;;;;;;;10.73;1.97;;;9.30;99.90;;;;;;7300506;19;20211;-87
2024/01/05 11:43:33;;;;;;;9.30;2.27;;;9.30;99.90;;;;;;7180630;19;2004784;-84
2024/01/05 11:45:59;;;;;;;8.30;2.30;;;9.30;99.90;;;;;;7259540;19;20668;-85
2024/01/05 11:48:33;;;;;;;8.57;2.40;;;9.30;99.90;;;;;;7301526;19;20598;-85
2024/01/05 11:51:09;;;;;;;7.87;1.87;;;9.30;99.90;;;;;;7258108;19;20197;-85
2024/01/05 11:53:35;;;;;;;9.27;2.23;;;9.40;99.90;;;;;;7281801;19;20189;-85
2024/01/05 11:56:17;;;;;;;7.20;2.30;;;9.40;99.90;;;;;;7290031;19;20183;-85
2024/01/05 11:58:44;;;;;;;8.13;2.10;;;9.30;99.90;;;;;;7280331;19;20652;-85
2024/01/05 12:01:12;;;;;;;9.17;2.27;;;9.30;99.90;;;;;;7280335;19;20219;-84
2024/01/05 12:03:39;;;;;;;5.20;1.93;;;9.20;99.90;;;;;;7281135;19;20213;-85
2024/01/05 12:06:06;;;;;;;7.10;1.70;;;9.20;99.90;;;;;;7280754;19;20196;-85
2024/01/05 12:08:33;;;;;;;12.37;2.70;;;9.20;99.90;;;;;;7281503;19;20736;-86
2024/01/05 12:11:02;;;;;;;9.40;2.17;;;9.30;99.90;;;;;;7279972;19;20218;-86
2024/01/05 12:13:29;;;;;;;6.80;2.13;;;9.30;99.90;;;;;;7280211;19;20189;-86
2024/01/05 12:16:06;;;;;;;9.43;2.40;;;9.40;99.90;;;;;;7302619;19;20665;-86
2024/01/05 12:18:52;;;;;;;6.93;2.10;;;9.50;99.90;;;;;;7179609;19;2004674;-86
2024/01/05 12:21:20;;;;;;;8.93;2.60;;;9.50;99.90;;;;;;7280117;19;20192;-86
2024/01/05 12:23:54;;;;;;;8.87;3.33;;;9.40;99.90;;;;;;7281500;19;20195;-86
2024/01/05 12:26:20;;;;;;;8.77;2.80;;;9.50;99.90;;;;;;7278653;19;20210;-86
2024/01/05 12:28:46;;;;;;;11.80;2.97;;;9.40;99.90;;;;;;7279610;19;20274;-86
2024/01/05 12:31:13;;;;;;;7.77;2.53;;;9.40;99.90;;;;;;7280426;19;20206;-86
2024/01/05 12:33:39;;;;;;;7.30;2.90;;;9.40;99.90;;;;;;7281385;19;20198;-85
2024/01/05 12:36:09;;;;;;;12.07;2.87;;;9.30;99.90;;;;;;7279773;19;20181;-86
2024/01/05 12:38:35;;;;;;;7.93;3.20;;;9.30;99.90;;;;;;7279097;19;20204;-86
2024/01/05 12:41:12;;;;;;;9.00;2.97;;;9.30;99.90;;;;;;7278708;19;20256;-86
2024/01/05 12:43:52;;;;;;;11.17;3.20;;;9.30;99.90;;;;;;7280557;19;20201;-86
2024/01/05 12:46:23;;;;;;;10.10;4.00;;;9.20;99.90;;;;;;7278720;19;20202;-86
2024/01/05 12:48:50;;;;;;;8.97;2.93;;;9.30;99.90;;;;;;7278406;19;20195;-85
2024/01/05 12:51:20;;;;;;;8.77;3.30;;;9.30;99.90;;;;;;7277736;19;20194;-92
2024/01/05 12:53:56;;;;;;;11.13;4.20;;;9.50;99.90;;;;;;7278853;19;20643;-92